createdAt,value
2018-03-23T00:00:28.225Z,100994.09
2018-03-23T00:02:55.805Z,100999.20
2018-03-23T00:05:23.460Z,100995.58
2018-03-23T00:07:51.042Z,100992.89
2018-03-23T00:10:18.632Z,100988.86
2018-03-23T00:12:46.621Z,100995.96
2018-03-23T00:15:14.488Z,100986.69
2018-03-23T00:17:44.536Z,100985.09
2018-03-23T00:20:12.605Z,100981.98
2018-03-23T00:22:40.548Z,100978.61
2018-03-23T00:25:08.620Z,100977.54
2018-03-23T00:27:36.340Z,100977.67
2018-03-23T00:30:03.981Z,100973.23
2018-03-23T00:32:31.597Z,100966.78
2018-03-23T00:34:59.574Z,100975.78
2018-03-23T00:37:27.228Z,100972.71
2018-03-23T00:39:54.818Z,100977.27
2018-03-23T00:42:22.465Z,100969.46
2018-03-23T00:44:50.049Z,100963.67
2018-03-23T00:47:17.884Z,100974.05
2018-03-23T00:49:45.567Z,100966.63
2018-03-23T00:52:13.399Z,100960.84
2018-03-23T00:54:41.033Z,100962.32
2018-03-23T00:57:08.953Z,100961.11
2018-03-23T00:59:36.545Z,100959.48
2018-03-23T01:02:04.536Z,100956.14
2018-03-23T01:04:32.111Z,100953.58
2018-03-23T01:06:59.684Z,100947.50
2018-03-23T01:09:27.362Z,100948.98
2018-03-23T01:11:55.234Z,100944.26
2018-03-23T01:14:22.835Z,100945.36
2018-03-23T01:16:50.478Z,100945.09
2018-03-23T01:19:18.289Z,100942.40
2018-03-23T01:21:45.895Z,100945.74
2018-03-23T01:24:13.550Z,100941.44
2018-03-23T01:26:41.389Z,100938.50
2018-03-23T01:29:09.047Z,100932.56
2018-03-23T01:31:37.005Z,100938.36
2018-03-23T01:34:04.839Z,100928.11
2018-03-23T01:36:32.703Z,100933.11
2018-03-23T01:39:00.641Z,100926.11
2018-03-23T01:41:28.245Z,100932.28
2018-03-23T01:43:55.840Z,100925.28
2018-03-23T01:46:23.555Z,100926.63
2018-03-23T01:48:51.200Z,100916.84
2018-03-23T01:51:18.794Z,100915.77
2018-03-23T01:53:46.429Z,100913.23
2018-03-23T01:56:14.244Z,100920.47
2018-03-23T01:58:41.909Z,100914.81
2018-03-23T02:01:10.110Z,100914.96
2018-03-23T02:03:37.712Z,100914.58
2018-03-23T02:06:05.640Z,100903.82
2018-03-23T02:08:33.612Z,100902.48
2018-03-23T02:11:01.229Z,100899.78
2018-03-23T02:13:28.889Z,100891.30
2018-03-23T02:15:56.920Z,100890.23
2018-03-23T02:18:24.513Z,100888.47
2018-03-23T02:20:52.230Z,100885.38
2018-03-23T02:23:19.930Z,100885.38
2018-03-23T02:25:47.867Z,100879.06
2018-03-23T02:28:15.479Z,100878.01
2018-03-23T02:30:43.201Z,100872.91
2018-03-23T02:33:10.803Z,100870.87
2018-03-23T02:35:38.378Z,100867.11
2018-03-23T02:38:06.376Z,100857.56
2018-03-23T02:40:33.952Z,100859.31
2018-03-23T02:43:01.848Z,100853.52
2018-03-23T02:45:29.852Z,100852.45
2018-03-23T02:47:57.461Z,100847.63
2018-03-23T02:50:25.065Z,100847.63
2018-03-23T02:52:52.724Z,100846.93
2018-03-23T02:55:20.325Z,100847.21
2018-03-23T02:57:47.931Z,100840.08
2018-03-23T03:00:15.581Z,100836.45
2018-03-23T03:02:43.222Z,100840.76
2018-03-23T03:05:10.887Z,100834.17
2018-03-23T03:07:38.460Z,100834.97
2018-03-23T03:10:06.366Z,100839.55
2018-03-23T03:12:34.186Z,100829.45
2018-03-23T03:15:01.864Z,100836.19
2018-03-23T03:17:29.584Z,100829.08
2018-03-23T03:19:57.177Z,100825.69
2018-03-23T03:22:24.786Z,100822.73
2018-03-23T03:24:52.496Z,100819.26
2018-03-23T03:27:20.092Z,100819.25
2018-03-23T03:29:47.675Z,100815.86
2018-03-23T03:32:15.366Z,100811.04
2018-03-23T03:34:42.951Z,100810.75
2018-03-23T03:37:10.889Z,100812.38
2018-03-23T03:39:38.474Z,100807.13
2018-03-23T03:42:06.360Z,100804.30
2018-03-23T03:44:33.980Z,100805.50
2018-03-23T03:47:01.573Z,100809.39
2018-03-23T03:49:29.570Z,100804.28
2018-03-23T03:51:57.174Z,100809.66
2018-03-23T03:54:24.784Z,100809.38
2018-03-23T03:56:52.707Z,100807.21
2018-03-23T03:59:20.304Z,100800.11
2018-03-23T04:01:47.994Z,100801.04
2018-03-23T04:04:15.603Z,100795.93
2018-03-23T04:06:43.214Z,100797.80
2018-03-23T04:09:11.110Z,100793.25
2018-03-23T04:11:38.720Z,100793.11
2018-03-23T04:14:06.330Z,100796.59
2018-03-23T04:16:34.011Z,100788.14
2018-03-23T04:19:01.878Z,100791.62
2018-03-23T04:21:29.485Z,100783.96
2018-03-23T04:23:57.465Z,100786.38
2018-03-23T04:26:25.152Z,100775.89
2018-03-23T04:28:52.729Z,100778.30
2018-03-23T04:31:20.349Z,100773.98
2018-03-23T04:33:47.989Z,100769.80
2018-03-23T04:36:15.618Z,100769.42
2018-03-23T04:38:43.445Z,100762.02
2018-03-23T04:41:11.049Z,100745.33
2018-03-23T04:43:38.651Z,100729.91
2018-03-23T04:46:06.666Z,100732.16
2018-03-23T04:48:34.277Z,100740.65
2018-03-23T04:51:01.865Z,100747.64
2018-03-23T04:53:29.922Z,100741.98
2018-03-23T04:55:57.502Z,100744.12
2018-03-23T04:58:25.388Z,100740.35
2018-03-23T05:00:53.526Z,100740.21
2018-03-23T05:03:21.099Z,100736.73
2018-03-23T05:05:48.704Z,100734.18
2018-03-23T05:08:16.307Z,100729.07
2018-03-23T05:10:44.415Z,100730.27
2018-03-23T05:13:12.059Z,100730.00
2018-03-23T05:15:39.733Z,100723.55
2018-03-23T05:18:07.325Z,100722.06
2018-03-23T05:20:35.474Z,100719.75
2018-03-23T05:23:03.063Z,100725.69
2018-03-23T05:25:30.662Z,100716.92
2018-03-23T05:27:58.293Z,100714.37
2018-03-23T05:30:25.975Z,100711.16
2018-03-23T05:32:53.563Z,100707.13
2018-03-23T05:35:21.163Z,100702.94
2018-03-23T05:37:49.182Z,100704.57
2018-03-23T05:40:16.781Z,100704.43
2018-03-23T05:42:44.418Z,100695.80
2018-03-23T05:45:12.043Z,100706.16
2018-03-23T05:47:39.695Z,100699.32
2018-03-23T05:50:07.320Z,100701.72
2018-03-23T05:52:34.957Z,100698.63
2018-03-23T05:55:02.595Z,100699.97
2018-03-23T05:57:30.186Z,100701.31
2018-03-23T05:59:57.778Z,100705.49
2018-03-23T06:02:25.430Z,100698.91
2018-03-23T06:04:53.078Z,100697.97
2018-03-23T06:07:20.665Z,100692.70
2018-03-23T06:09:48.292Z,100694.45
2018-03-23T06:12:15.993Z,100687.45
2018-03-23T06:14:43.602Z,100685.58
2018-03-23T06:17:11.607Z,100689.06
2018-03-23T06:19:39.209Z,100688.13
2018-03-23T06:22:07.051Z,100683.95
2018-03-23T06:24:35.174Z,100686.21
2018-03-23T06:27:02.769Z,100684.08
2018-03-23T06:29:30.557Z,100676.80
2018-03-23T06:31:58.180Z,100683.38
2018-03-23T06:34:26.257Z,100675.02
2018-03-23T06:36:53.860Z,100675.98
2018-03-23T06:39:21.449Z,100665.20
2018-03-23T06:41:49.094Z,100668.83
2018-03-23T06:44:16.679Z,100674.48
2018-03-23T06:46:44.331Z,100665.71
2018-03-23T06:49:12.122Z,100669.75
2018-03-23T06:51:44.096Z,100666.77
2018-03-23T06:54:11.728Z,100663.94
2018-03-23T06:56:39.425Z,100667.57
2018-03-23T06:59:07.080Z,100669.56
2018-03-23T07:01:34.870Z,100666.59
2018-03-23T07:04:02.476Z,100664.81
2018-03-23T07:06:30.070Z,100664.55
2018-03-23T07:08:57.749Z,100663.72
2018-03-23T07:11:25.780Z,100660.87
2018-03-23T07:13:53.680Z,100666.80
2018-03-23T07:16:21.281Z,100670.41
2018-03-23T07:18:48.939Z,100670.53
2018-03-23T07:21:16.798Z,100667.55
2018-03-23T07:23:44.849Z,100660.82
2018-03-23T07:26:13.114Z,100667.12
2018-03-23T07:28:40.720Z,100665.77
2018-03-23T07:31:08.301Z,100662.27
2018-03-23T07:33:36.617Z,100662.25
2018-03-23T07:36:04.267Z,100656.98
2018-03-23T07:38:32.101Z,100652.92
2018-03-23T07:41:00.176Z,100651.79
2018-03-23T07:43:27.845Z,100657.27
2018-03-23T07:45:55.423Z,100648.12
2018-03-23T07:48:23.042Z,100644.20
2018-03-23T07:50:51.477Z,100642.97
2018-03-23T07:53:19.198Z,100649.12
2018-03-23T07:55:47.116Z,100646.67
2018-03-23T07:58:14.701Z,100641.14
2018-03-23T08:00:42.742Z,100647.30
2018-03-23T08:03:10.377Z,100637.44
2018-03-23T08:05:37.977Z,100641.69
2018-03-23T08:08:05.651Z,100638.70
2018-03-23T08:10:33.317Z,100635.28
2018-03-23T08:13:00.974Z,100632.06
2018-03-23T08:15:28.984Z,100628.78
2018-03-23T08:17:56.585Z,100630.22
2018-03-23T08:20:24.185Z,100627.77
2018-03-23T08:22:52.276Z,100626.39
2018-03-23T08:25:19.880Z,100626.33
2018-03-23T08:27:47.488Z,100625.92
2018-03-23T08:30:15.310Z,100622.09
2018-03-23T08:32:42.952Z,100622.38
2018-03-23T08:35:10.836Z,100619.80
2018-03-23T08:37:38.544Z,100617.11
2018-03-23T08:40:06.152Z,100621.18
2018-03-23T08:42:33.767Z,100619.42
2018-03-23T08:45:01.795Z,100619.39
2018-03-23T08:47:29.390Z,100613.33
2018-03-23T08:49:57.731Z,100606.86
2018-03-23T08:52:25.386Z,100612.42
2018-03-23T08:54:52.976Z,100610.81
2018-03-23T08:57:20.841Z,100609.14
2018-03-23T08:59:48.454Z,100605.03
2018-03-23T09:02:16.279Z,100596.89
2018-03-23T09:04:43.870Z,100600.16
2018-03-23T09:07:11.481Z,100600.51
2018-03-23T09:09:39.351Z,100597.69
2018-03-23T09:12:07.115Z,100595.73
2018-03-23T09:14:34.842Z,100589.57
2018-03-23T09:17:02.684Z,100586.92
2018-03-23T09:19:30.395Z,100581.95
2018-03-23T09:21:58.059Z,100577.94
2018-03-23T09:24:25.965Z,100578.23
2018-03-23T09:26:53.572Z,100572.20
2018-03-23T09:29:21.167Z,100569.77
2018-03-23T09:31:48.792Z,100562.93
2018-03-23T09:34:16.467Z,100563.64
2018-03-23T09:36:44.099Z,100562.99
2018-03-23T09:39:11.693Z,100561.71
2018-03-23T09:41:39.344Z,100560.47
2018-03-23T09:44:07.167Z,100566.09
2018-03-23T09:46:34.872Z,100564.39
2018-03-23T09:49:02.609Z,100559.88
2018-03-23T09:51:30.241Z,100558.05
2018-03-23T09:53:57.819Z,100552.53
2018-03-23T09:56:25.655Z,100547.04
2018-03-23T09:58:53.610Z,100551.72
2018-03-23T10:01:21.271Z,100551.37
2018-03-23T10:03:48.920Z,100553.61
2018-03-23T10:06:16.524Z,100545.25
2018-03-23T10:08:45.363Z,100552.00
2018-03-23T10:11:12.991Z,100552.11
2018-03-23T10:13:40.592Z,100542.25
2018-03-23T10:16:08.776Z,100531.70
2018-03-23T10:18:36.353Z,100534.25
2018-03-23T10:21:03.951Z,100532.66
2018-03-23T10:23:31.642Z,100528.77
2018-03-23T10:25:59.248Z,100525.51
2018-03-23T10:28:26.863Z,100514.30
2018-03-23T10:30:55.317Z,100520.59
2018-03-23T10:33:23.339Z,100514.63
2018-03-23T10:35:51.361Z,100503.87
2018-03-23T10:38:18.949Z,100497.47
2018-03-23T10:40:46.534Z,100496.84
2018-03-23T10:43:14.171Z,100495.59
2018-03-23T10:45:42.115Z,100502.23
2018-03-23T10:48:09.682Z,100494.94
2018-03-23T10:50:37.383Z,100496.24
2018-03-23T10:53:04.965Z,100492.50
2018-03-23T10:55:32.911Z,100496.55
2018-03-23T10:58:07.411Z,100492.03
2018-03-23T11:00:40.523Z,100488.59
2018-03-23T11:03:08.228Z,100484.39
2018-03-23T11:05:35.823Z,100483.59
2018-03-23T11:08:03.491Z,100479.70
2018-03-23T11:10:31.137Z,100474.75
2018-03-23T11:12:59.029Z,100478.59
2018-03-23T11:15:26.608Z,100479.98
2018-03-23T11:17:54.342Z,100481.55
2018-03-23T11:20:22.240Z,100480.16
2018-03-23T11:22:49.829Z,100474.34
2018-03-23T11:25:17.541Z,100472.63
2018-03-23T11:27:45.211Z,100471.53
2018-03-23T11:30:13.103Z,100472.20
2018-03-23T11:32:40.780Z,100466.95
2018-03-23T11:35:08.354Z,100458.53
2018-03-23T11:37:35.941Z,100469.27
2018-03-23T11:40:03.840Z,100468.94
2018-03-23T11:42:31.432Z,100463.47
2018-03-23T11:44:59.049Z,100465.84
2018-03-23T11:47:27.032Z,100452.12
2018-03-23T11:49:54.748Z,100452.23
2018-03-23T11:52:22.403Z,100450.58
2018-03-23T11:54:49.998Z,100453.78
2018-03-23T11:57:18.014Z,100453.84
2018-03-23T11:59:45.660Z,100449.47
2018-03-23T12:02:13.359Z,100448.23
2018-03-23T12:04:41.006Z,100447.03
2018-03-23T12:07:08.607Z,100444.37
2018-03-23T12:09:36.604Z,100430.45
2018-03-23T12:12:04.194Z,100439.70
2018-03-23T12:14:32.711Z,100428.75
2018-03-23T12:17:00.373Z,100421.09
2018-03-23T12:19:27.961Z,100410.19
2018-03-23T12:21:55.547Z,100414.04
2018-03-23T12:24:23.182Z,100407.29
2018-03-23T12:26:50.915Z,100406.30
2018-03-23T12:29:18.479Z,100408.69
2018-03-23T12:31:46.121Z,100406.93
2018-03-23T12:34:13.704Z,100401.63
2018-03-23T12:36:41.315Z,100398.68
2018-03-23T12:39:08.947Z,100401.59
2018-03-23T12:41:36.543Z,100403.09
2018-03-23T12:44:04.138Z,100398.47
2018-03-23T12:46:31.751Z,100390.17
2018-03-23T12:48:59.345Z,100391.09
2018-03-23T12:51:27.357Z,100383.14
2018-03-23T12:53:55.248Z,100383.98
2018-03-23T12:56:23.419Z,100385.53
2018-03-23T12:58:51.129Z,100381.05
2018-03-23T13:01:18.771Z,100377.31
2018-03-23T13:03:46.494Z,100376.31
2018-03-23T13:06:14.436Z,100372.75
2018-03-23T13:08:42.095Z,100370.55
2018-03-23T13:11:09.681Z,100375.70
2018-03-23T13:13:37.394Z,100373.56
2018-03-23T13:16:04.977Z,100369.95
2018-03-23T13:18:32.636Z,100367.76
2018-03-23T13:21:00.307Z,100363.35
2018-03-23T13:23:27.906Z,100367.66
2018-03-23T13:25:55.511Z,100371.25
2018-03-23T13:28:23.127Z,100361.75
2018-03-23T13:30:50.711Z,100356.81
2018-03-23T13:33:18.413Z,100354.27
2018-03-23T13:35:46.011Z,100357.02
2018-03-23T13:38:13.606Z,100356.86
2018-03-23T13:40:41.397Z,100357.02
2018-03-23T13:43:09.041Z,100347.47
2018-03-23T13:45:36.634Z,100351.30
2018-03-23T13:48:04.307Z,100346.47
2018-03-23T13:50:31.930Z,100345.75
2018-03-23T13:52:59.514Z,100343.62
2018-03-23T13:55:27.419Z,100337.86
2018-03-23T13:57:55.078Z,100335.83
2018-03-23T14:00:28.201Z,100331.88
2018-03-23T14:02:55.810Z,100327.38
2018-03-23T14:05:23.450Z,100328.36
2018-03-23T14:07:51.154Z,100329.18
2018-03-23T14:10:18.786Z,100332.66
2018-03-23T14:12:46.387Z,100323.75
2018-03-23T14:15:14.246Z,100323.91
2018-03-23T14:17:42.427Z,100328.94
2018-03-23T14:20:10.046Z,100325.97
2018-03-23T14:22:37.766Z,100330.58
2018-03-23T14:25:05.768Z,100329.91
2018-03-23T14:27:33.332Z,100332.15
2018-03-23T14:30:00.940Z,100323.32
2018-03-23T14:32:28.678Z,100326.33
2018-03-23T14:34:56.354Z,100326.70
2018-03-23T14:37:23.933Z,100321.61
2018-03-23T14:39:51.558Z,100324.26
2018-03-23T14:42:19.460Z,100320.67
2018-03-23T14:44:47.139Z,100313.52
2018-03-23T14:47:15.090Z,100315.13
2018-03-23T14:49:43.220Z,100306.77
2018-03-23T14:52:10.810Z,100308.33
2018-03-23T14:54:38.724Z,100306.70
2018-03-23T14:57:06.365Z,100309.25
2018-03-23T14:59:34.771Z,100311.28
2018-03-23T15:02:02.354Z,100305.20
2018-03-23T15:04:29.991Z,100300.08
2018-03-23T15:06:57.828Z,100303.66
2018-03-23T15:09:25.476Z,100300.64
2018-03-23T15:11:53.072Z,100302.30
2018-03-23T15:14:20.664Z,100295.39
2018-03-23T15:16:48.445Z,100300.96
2018-03-23T15:19:16.025Z,100288.66
2018-03-23T15:21:43.914Z,100287.92
2018-03-23T15:24:11.485Z,100281.89
2018-03-23T15:26:39.529Z,100280.34
2018-03-23T15:29:07.146Z,100268.20
2018-03-23T15:31:34.725Z,100270.22
2018-03-23T15:34:02.646Z,100271.57
2018-03-23T15:36:30.225Z,100268.77
2018-03-23T15:38:57.866Z,100268.51
2018-03-23T15:41:25.506Z,100265.81
2018-03-23T15:43:53.106Z,100263.46
2018-03-23T15:46:20.746Z,100269.09
2018-03-23T15:48:48.512Z,100277.80
2018-03-23T15:51:16.200Z,100277.49
2018-03-23T15:53:43.864Z,100262.22
2018-03-23T15:56:11.458Z,100263.98
2018-03-23T15:58:39.469Z,100264.83
2018-03-23T16:01:08.068Z,100262.59
2018-03-23T16:03:42.672Z,100267.67
2018-03-23T16:06:10.348Z,100259.88
2018-03-23T16:08:38.091Z,100263.43
2018-03-23T16:11:05.820Z,100267.16
2018-03-23T16:13:33.414Z,100257.23
2018-03-23T16:16:01.059Z,100257.98
2018-03-23T16:18:29.154Z,100253.87
2018-03-23T16:20:57.111Z,100248.00
2018-03-23T16:23:24.685Z,100252.41
2018-03-23T16:25:52.745Z,100255.02
2018-03-23T16:28:20.365Z,100254.03
2018-03-23T16:30:48.273Z,100241.07
2018-03-23T16:33:16.113Z,100241.30
2018-03-23T16:35:43.762Z,100237.76
2018-03-23T16:38:11.671Z,100243.44
2018-03-23T16:40:39.285Z,100231.67
2018-03-23T16:43:06.913Z,100229.36
2018-03-23T16:45:34.569Z,100233.03
2018-03-23T16:48:02.188Z,100232.73
2018-03-23T16:50:30.257Z,100233.82
2018-03-23T16:52:57.897Z,100239.22
2018-03-23T16:55:26.080Z,100240.67
2018-03-23T16:57:53.834Z,100239.27
2018-03-23T17:00:21.559Z,100241.38
2018-03-23T17:02:49.170Z,100242.53
2018-03-23T17:05:17.181Z,100242.41
2018-03-23T17:07:44.857Z,100245.63
2018-03-23T17:10:12.462Z,100249.68
2018-03-23T17:12:40.144Z,100248.89
2018-03-23T17:15:07.743Z,100249.78
2018-03-23T17:17:35.349Z,100248.13
2018-03-23T17:20:03.062Z,100244.80
2018-03-23T17:22:30.806Z,100235.89
2018-03-23T17:24:58.520Z,100235.56
2018-03-23T17:27:26.200Z,100232.91
2018-03-23T17:29:53.819Z,100235.77
2018-03-23T17:32:21.405Z,100238.71
2018-03-23T17:34:49.233Z,100241.13
2018-03-23T17:37:17.202Z,100242.80
2018-03-23T17:39:44.804Z,100243.77
2018-03-23T17:42:12.484Z,100239.72
2018-03-23T17:44:40.081Z,100242.52
2018-03-23T17:47:07.740Z,100244.02
2018-03-23T17:49:35.736Z,100246.57
2018-03-23T17:52:03.492Z,100252.23
2018-03-23T17:54:31.200Z,100248.27
2018-03-23T17:56:58.906Z,100245.58
2018-03-23T17:59:26.585Z,100251.06
2018-03-23T18:01:54.319Z,100249.94
2018-03-23T18:04:22.263Z,100252.70
2018-03-23T18:06:49.963Z,100245.89
2018-03-23T18:09:17.679Z,100250.64
2018-03-23T18:11:45.696Z,100253.48
2018-03-23T18:14:13.441Z,100253.64
2018-03-23T18:16:41.037Z,100247.77
2018-03-23T18:19:08.882Z,100243.84
2018-03-23T18:21:37.072Z,100242.84
2018-03-23T18:24:05.502Z,100243.66
2018-03-23T18:26:33.729Z,100244.19
2018-03-23T18:29:01.849Z,100251.23
2018-03-23T18:31:30.332Z,100241.95
2018-03-23T18:33:57.951Z,100247.48
2018-03-23T18:36:25.551Z,100246.25
2018-03-23T18:38:53.329Z,100239.47
2018-03-23T18:41:20.955Z,100245.84
2018-03-23T18:43:48.622Z,100246.86
2018-03-23T18:46:16.539Z,100249.70
2018-03-23T18:48:44.210Z,100251.36
2018-03-23T18:51:11.879Z,100256.11
2018-03-23T18:53:39.925Z,100261.14
2018-03-23T18:56:07.527Z,100256.20
2018-03-23T18:58:35.169Z,100255.16
2018-03-23T19:01:03.158Z,100252.42
2018-03-23T19:03:30.754Z,100252.27
2018-03-23T19:05:58.720Z,100250.66
2018-03-23T19:08:26.351Z,100260.35
2018-03-23T19:10:54.017Z,100257.25
2018-03-23T19:13:21.676Z,100253.05
2018-03-23T19:15:49.379Z,100256.61
2018-03-23T19:18:17.305Z,100255.27
2018-03-23T19:20:44.889Z,100256.36
2018-03-23T19:23:12.603Z,100255.16
2018-03-23T19:25:40.597Z,100252.46
2018-03-23T19:28:08.420Z,100258.80
2018-03-23T19:30:36.091Z,100255.56
2018-03-23T19:33:03.793Z,100254.64
2018-03-23T19:35:31.467Z,100259.95
2018-03-23T19:37:59.100Z,100256.89
2018-03-23T19:40:26.802Z,100251.51
2018-03-23T19:42:54.926Z,100249.49
2018-03-23T19:45:22.535Z,100255.59
2018-03-23T19:47:50.380Z,100253.98
2018-03-23T19:50:18.266Z,100256.00
2018-03-23T19:52:46.217Z,100255.44
2018-03-23T19:55:13.921Z,100256.53
2018-03-23T19:57:41.579Z,100252.89
2018-03-23T20:00:09.510Z,100251.70
2018-03-23T20:02:37.119Z,100253.98
2018-03-23T20:05:04.826Z,100241.42
2018-03-23T20:07:32.423Z,100248.98
2018-03-23T20:10:00.027Z,100245.50
2018-03-23T20:12:27.897Z,100248.09
2018-03-23T20:14:55.569Z,100245.80
2018-03-23T20:17:28.911Z,100246.41
2018-03-23T20:19:56.701Z,100246.27
2018-03-23T20:22:24.348Z,100246.53
2018-03-23T20:24:51.982Z,100238.91
2018-03-23T20:27:25.474Z,100245.00
2018-03-23T20:29:53.093Z,100241.16
2018-03-23T20:32:26.222Z,100242.55
2018-03-23T20:34:53.814Z,100242.44
2018-03-23T20:37:21.423Z,100240.83
2018-03-23T20:39:49.080Z,100235.84
2018-03-23T20:42:16.681Z,100246.02
2018-03-23T20:44:44.277Z,100242.88
2018-03-23T20:47:11.971Z,100241.49
2018-03-23T20:49:39.839Z,100243.48
2018-03-23T20:52:07.519Z,100237.05
2018-03-23T20:54:35.271Z,100239.25
2018-03-23T20:57:02.989Z,100235.48
2018-03-23T20:59:30.599Z,100237.39
2018-03-23T21:01:58.209Z,100240.12
2018-03-23T21:04:25.880Z,100232.87
2018-03-23T21:06:53.543Z,100233.69
2018-03-23T21:09:21.144Z,100232.75
2018-03-23T21:11:49.228Z,100235.07
2018-03-23T21:14:16.981Z,100233.46
2018-03-23T21:16:44.596Z,100234.41
2018-03-23T21:19:12.226Z,100233.16
2018-03-23T21:21:39.912Z,100224.60
2018-03-23T21:24:08.021Z,100230.36
2018-03-23T21:26:35.624Z,100225.43
2018-03-23T21:29:03.217Z,100227.08
2018-03-23T21:31:30.924Z,100226.85
2018-03-23T21:33:58.666Z,100224.72
2018-03-23T21:36:26.267Z,100229.02
2018-03-23T21:38:53.911Z,100227.93
2018-03-23T21:41:21.581Z,100218.09
2018-03-23T21:43:49.478Z,100222.59
2018-03-23T21:46:17.068Z,100219.94
2018-03-23T21:48:44.821Z,100216.53
2018-03-23T21:51:12.435Z,100211.30
2018-03-23T21:53:40.029Z,100223.52
2018-03-23T21:56:07.692Z,100223.97
2018-03-23T21:58:35.319Z,100211.86
2018-03-23T22:01:02.909Z,100213.84
2018-03-23T22:03:30.633Z,100215.15
2018-03-23T22:05:58.243Z,100211.52
2018-03-23T22:08:25.919Z,100207.97
2018-03-23T22:10:53.787Z,100214.95
2018-03-23T22:13:21.674Z,100211.81
2018-03-23T22:15:49.272Z,100212.87
2018-03-23T22:18:18.429Z,100217.02
2018-03-23T22:20:46.510Z,100216.34
2018-03-23T22:23:14.141Z,100217.83
2018-03-23T22:25:41.793Z,100219.03
2018-03-23T22:28:09.432Z,100221.57
2018-03-23T22:30:37.396Z,100222.20
2018-03-23T22:33:05.062Z,100214.95
2018-03-23T22:35:32.700Z,100215.09
2018-03-23T22:38:00.446Z,100216.34
2018-03-23T22:40:28.054Z,100212.83
2018-03-23T22:42:57.060Z,100212.83
2018-03-23T22:45:24.688Z,100211.59
2018-03-23T22:47:52.357Z,100208.22
2018-03-23T22:50:20.046Z,100206.47
2018-03-23T22:52:47.714Z,100206.31
2018-03-23T22:55:15.667Z,100203.09
2018-03-23T22:57:43.260Z,100205.78
2018-03-23T23:00:10.877Z,100209.94
2018-03-23T23:02:38.949Z,100211.02
2018-03-23T23:05:06.841Z,100213.56
2018-03-23T23:07:34.472Z,100210.02
2018-03-23T23:10:02.387Z,100209.48
2018-03-23T23:12:30.082Z,100211.36
2018-03-23T23:14:57.861Z,100206.42
2018-03-23T23:17:25.760Z,100205.72
2018-03-23T23:19:53.563Z,100204.09
2018-03-23T23:22:21.230Z,100203.23
2018-03-23T23:24:48.860Z,100202.30
2018-03-23T23:27:16.475Z,100199.72
2018-03-23T23:29:44.299Z,100195.53
2018-03-23T23:32:12.257Z,100189.78
2018-03-23T23:34:39.962Z,100187.64
2018-03-23T23:37:07.582Z,100188.98
2018-03-23T23:39:35.218Z,100183.20
2018-03-23T23:42:02.814Z,100186.03
2018-03-23T23:44:30.470Z,100186.75
2018-03-23T23:46:58.069Z,100187.02
2018-03-23T23:49:25.648Z,100184.88
2018-03-23T23:51:53.339Z,100186.42
2018-03-23T23:54:21.078Z,100180.14
2018-03-23T23:56:48.680Z,100176.67
2018-03-23T23:59:16.747Z,100180.38
